Time;durP1;ratioP1;P1;durP2;ratioP2;P2;SDS_P1;SDS_P2;PMS_P1;PMS_P2;Temp;Humidity;BMP_temperature;BMP_pressure;BME280_temperature;BME280_humidity;BME280_pressure;Samples;Min_cycle;Max_cycle;Signal;HPM_P1;HPM_P2
2021/08/19 00:02:07;;;;;;;11.07;6.40;;;;;;;;;;5038814;28;20536;-85
2021/08/19 00:04:33;;;;;;;14.73;6.93;;;;;;;;;;5038010;28;20416;-83
2021/08/19 00:06:59;;;;;;;6.80;6.10;;;;;;;;;;5056483;28;20815;-82
2021/08/19 00:09:25;;;;;;;7.70;6.30;;;;;;;;;;5055652;28;20505;-87
2021/08/19 00:11:51;;;;;;;7.77;5.47;;;;;;;;;;5055751;28;20383;-84
2021/08/19 00:14:17;;;;;;;10.43;6.00;;;;;;;;;;5055450;28;20436;-85
2021/08/19 00:16:43;;;;;;;8.07;6.60;;;;;;;;;;5056097;28;20459;-88
2021/08/19 00:19:09;;;;;;;7.33;5.90;;;;;;;;;;5055804;28;20419;-86
2021/08/19 00:21:35;;;;;;;16.03;6.87;;;;;;;;;;5055073;28;20415;-87
2021/08/19 00:24:01;;;;;;;9.93;6.80;;;;;;;;;;5037547;28;20412;-85
2021/08/19 00:26:27;;;;;;;8.67;6.73;;;;;;;;;;5054930;28;20931;-86
2021/08/19 00:28:53;;;;;;;8.60;6.73;;;;;;;;;;5054926;28;20461;-85
2021/08/19 00:31:22;;;;;;;7.60;6.50;;;;;;;;;;5055585;28;20383;-85
2021/08/19 00:33:48;;;;;;;8.53;7.17;;;;;;;;;;5037530;28;20504;-88
2021/08/19 00:36:14;;;;;;;7.70;6.93;;;;;;;;;;5055382;28;20428;-87
2021/08/19 00:38:40;;;;;;;9.37;7.13;;;;;;;;;;5054921;28;20416;-86
2021/08/19 00:41:06;;;;;;;10.07;6.77;;;;;;;;;;5054239;28;20474;-86
2021/08/19 00:43:35;;;;;;;9.90;7.10;;;;;;;;;;5054286;28;20896;-84
2021/08/19 00:46:03;;;;;;;8.50;7.20;;;;;;;;;;5055292;28;20459;-84
2021/08/19 00:48:30;;;;;;;9.30;6.60;;;;;;;;;;5054594;28;20436;-86
2021/08/19 00:50:56;;;;;;;8.53;6.20;;;;;;;;;;5036988;28;21030;-85
2021/08/19 00:53:22;;;;;;;11.63;7.13;;;;;;;;;;5054361;28;20439;-83
2021/08/19 00:55:50;;;;;;;9.27;6.93;;;;;;;;;;5054552;28;20426;-86
2021/08/19 00:58:16;;;;;;;12.10;7.30;;;;;;;;;;5036573;28;20389;-87
2021/08/19 01:00:44;;;;;;;9.27;7.03;;;;;;;;;;5054299;28;20408;-86
2021/08/19 01:03:10;;;;;;;13.33;7.60;;;;;;;;;;5053792;28;20387;-85
2021/08/19 01:05:40;;;;;;;10.03;7.30;;;;;;;;;;5055468;28;20468;-88
2021/08/19 01:08:06;;;;;;;11.53;7.13;;;;;;;;;;5056094;28;20458;-84
2021/08/19 01:10:32;;;;;;;10.30;7.10;;;;;;;;;;5037074;28;20487;-85
2021/08/19 01:12:58;;;;;;;14.77;7.73;;;;;;;;;;5054582;28;20412;-86
2021/08/19 01:15:25;;;;;;;10.83;7.67;;;;;;;;;;5054155;28;20423;-87
2021/08/19 01:17:55;;;;;;;10.23;6.90;;;;;;;;;;5054502;28;20461;-87
2021/08/19 01:20:23;;;;;;;14.23;7.37;;;;;;;;;;5036584;28;20416;-87
2021/08/19 01:22:49;;;;;;;9.47;7.20;;;;;;;;;;5053880;28;20408;-88
2021/08/19 01:25:15;;;;;;;7.60;6.33;;;;;;;;;;5053939;28;20439;-86
2021/08/19 01:27:41;;;;;;;8.90;6.93;;;;;;;;;;5053797;28;20394;-87
2021/08/19 01:30:07;;;;;;;10.23;7.07;;;;;;;;;;5053271;28;20873;-85
2021/08/19 01:32:33;;;;;;;9.57;7.10;;;;;;;;;;5053327;28;20780;-86
2021/08/19 01:34:59;;;;;;;11.07;8.10;;;;;;;;;;5053180;28;20398;-86
2021/08/19 01:37:25;;;;;;;10.03;7.40;;;;;;;;;;5036143;28;20730;-86
2021/08/19 01:39:51;;;;;;;10.60;7.17;;;;;;;;;;5053845;28;20423;-84
2021/08/19 01:42:17;;;;;;;15.43;7.63;;;;;;;;;;5035962;28;20416;-84
2021/08/19 01:44:44;;;;;;;9.10;6.53;;;;;;;;;;5053200;28;20432;-87
2021/08/19 01:47:12;;;;;;;8.33;7.07;;;;;;;;;;5035763;28;20435;-88
2021/08/19 01:49:38;;;;;;;7.90;6.67;;;;;;;;;;5035851;28;20459;-87
2021/08/19 01:52:09;;;;;;;10.63;6.10;;;;;;;;;;5053702;28;20436;-86
2021/08/19 01:54:35;;;;;;;7.27;6.57;;;;;;;;;;5054315;28;20411;-85
2021/08/19 01:57:01;;;;;;;8.13;6.60;;;;;;;;;;5055389;28;20391;-85
2021/08/19 01:59:28;;;;;;;11.30;8.13;;;;;;;;;;5038914;28;20451;-86
2021/08/19 02:01:54;;;;;;;9.97;6.70;;;;;;;;;;5057564;28;20416;-84
2021/08/19 02:04:20;;;;;;;9.20;6.80;;;;;;;;;;5021347;28;20454;-88
2021/08/19 02:06:46;;;;;;;16.70;7.87;;;;;;;;;;5036920;28;20436;-85
2021/08/19 02:09:12;;;;;;;9.10;6.40;;;;;;;;;;5054421;28;20496;-86
2021/08/19 02:11:39;;;;;;;8.57;6.80;;;;;;;;;;5054267;28;20415;-86
2021/08/19 02:14:06;;;;;;;11.20;5.87;;;;;;;;;;5054395;28;20404;-85
2021/08/19 02:16:32;;;;;;;11.50;6.13;;;;;;;;;;5023971;28;20837;-85
2021/08/19 02:18:58;;;;;;;12.80;6.53;;;;;;;;;;5060153;28;20833;-86
2021/08/19 02:21:24;;;;;;;6.77;6.07;;;;;;;;;;5041709;28;20932;-87
2021/08/19 02:23:50;;;;;;;8.57;5.43;;;;;;;;;;5040598;28;20383;-87
2021/08/19 02:26:16;;;;;;;12.67;5.83;;;;;;;;;;5041017;28;20432;-86
2021/08/19 02:28:42;;;;;;;8.07;5.57;;;;;;;;;;5040483;28;20416;-86
2021/08/19 02:31:08;;;;;;;6.90;5.87;;;;;;;;;;5059483;28;20514;-87
2021/08/19 02:33:34;;;;;;;11.37;6.73;;;;;;;;;;5058676;28;20443;-85
2021/08/19 02:36:06;;;;;;;7.53;5.17;;;;;;;;;;5058290;28;20436;-86
2021/08/19 02:38:32;;;;;;;10.80;5.97;;;;;;;;;;5040227;28;20427;-84
2021/08/19 02:40:58;;;;;;;7.77;6.60;;;;;;;;;;5040137;28;20515;-87
2021/08/19 02:43:24;;;;;;;7.40;5.90;;;;;;;;;;5058133;28;20429;-84
2021/08/19 02:45:50;;;;;;;12.70;6.80;;;;;;;;;;5057772;28;20462;-88
2021/08/19 02:48:16;;;;;;;8.67;6.10;;;;;;;;;;5057670;28;20507;-87
2021/08/19 02:50:42;;;;;;;6.90;5.60;;;;;;;;;;5057488;28;20505;-85
2021/08/19 02:53:08;;;;;;;9.20;6.37;;;;;;;;;;5058369;28;20770;-86
2021/08/19 02:55:34;;;;;;;6.27;5.67;;;;;;;;;;5058509;28;20539;-86
2021/08/19 02:58:00;;;;;;;12.33;6.10;;;;;;;;;;5039857;28;20407;-87
2021/08/19 03:00:26;;;;;;;8.33;5.80;;;;;;;;;;5057820;28;20412;-85
2021/08/19 03:02:52;;;;;;;9.53;5.33;;;;;;;;;;5040163;28;20405;-86
2021/08/19 03:05:18;;;;;;;11.83;6.67;;;;;;;;;;5057607;28;20811;-86
2021/08/19 03:07:44;;;;;;;10.40;5.70;;;;;;;;;;5058218;28;20420;-87
2021/08/19 03:10:10;;;;;;;23.00;5.93;;;;;;;;;;5057169;28;20466;-87
2021/08/19 03:12:36;;;;;;;17.63;5.90;;;;;;;;;;5023621;28;20424;-87
2021/08/19 03:15:03;;;;;;;10.93;6.10;;;;;;;;;;5038731;28;20440;-85
2021/08/19 03:17:29;;;;;;;10.37;6.00;;;;;;;;;;5056671;28;20428;-85
2021/08/19 03:19:55;;;;;;;9.63;6.77;;;;;;;;;;5056248;28;20407;-86
2021/08/19 03:22:21;;;;;;;7.83;5.60;;;;;;;;;;5038833;28;20424;-86
2021/08/19 03:24:47;;;;;;;9.07;5.20;;;;;;;;;;5056400;28;20920;-88
2021/08/19 03:27:13;;;;;;;7.43;5.00;;;;;;;;;;5056993;28;20420;-87
2021/08/19 03:29:39;;;;;;;12.17;6.37;;;;;;;;;;5039880;28;20828;-87
2021/08/19 03:32:07;;;;;;;9.87;6.63;;;;;;;;;;5057579;28;20923;-86
2021/08/19 03:34:33;;;;;;;11.40;5.97;;;;;;;;;;5057369;28;20404;-85
2021/08/19 03:36:59;;;;;;;9.20;5.80;;;;;;;;;;5056974;28;20462;-84
2021/08/19 03:39:25;;;;;;;7.20;5.67;;;;;;;;;;5057129;28;20412;-86
2021/08/19 03:41:51;;;;;;;9.90;6.10;;;;;;;;;;5056954;28;20411;-86
2021/08/19 03:44:17;;;;;;;8.73;6.23;;;;;;;;;;5056780;28;20507;-86
2021/08/19 03:46:44;;;;;;;8.47;5.93;;;;;;;;;;5039063;28;20436;-87
2021/08/19 03:49:10;;;;;;;7.70;6.00;;;;;;;;;;5056982;28;20430;-88
2021/08/19 03:51:37;;;;;;;11.50;6.20;;;;;;;;;;5038615;28;20426;-86
2021/08/19 03:54:03;;;;;;;6.73;5.40;;;;;;;;;;5055958;28;20461;-87
2021/08/19 03:56:30;;;;;;;11.30;5.90;;;;;;;;;;5056191;28;20451;-84
2021/08/19 03:58:56;;;;;;;8.90;5.80;;;;;;;;;;5055775;28;20420;-85
2021/08/19 04:01:23;;;;;;;12.63;5.03;;;;;;;;;;5038038;28;20900;-87
2021/08/19 04:03:49;;;;;;;10.60;6.53;;;;;;;;;;5056082;28;20416;-85
2021/08/19 04:06:15;;;;;;;9.40;5.63;;;;;;;;;;5055535;28;20750;-84
2021/08/19 04:08:41;;;;;;;8.40;5.43;;;;;;;;;;5055428;28;20415;-88
2021/08/19 04:11:07;;;;;;;11.63;6.63;;;;;;;;;;5054909;28;20800;-85
2021/08/19 04:13:33;;;;;;;8.30;5.70;;;;;;;;;;5056480;28;20507;-87
2021/08/19 04:15:59;;;;;;;9.43;5.10;;;;;;;;;;5055061;28;20829;-86
2021/08/19 04:18:25;;;;;;;8.30;5.80;;;;;;;;;;5056561;28;20802;-88
2021/08/19 04:20:51;;;;;;;9.83;5.87;;;;;;;;;;5056430;28;20408;-86
2021/08/19 04:23:17;;;;;;;7.57;5.27;;;;;;;;;;5055035;28;20408;-86
2021/08/19 04:25:43;;;;;;;8.10;6.27;;;;;;;;;;5055612;28;20459;-87
2021/08/19 04:28:09;;;;;;;7.17;5.33;;;;;;;;;;5055609;28;20404;-85
2021/08/19 04:30:35;;;;;;;9.00;5.27;;;;;;;;;;5055898;28;20822;-85
2021/08/19 04:33:01;;;;;;;7.47;5.60;;;;;;;;;;5056652;28;20404;-86
2021/08/19 04:35:30;;;;;;;7.80;5.50;;;;;;;;;;5055640;28;20432;-87
2021/08/19 04:37:56;;;;;;;9.73;6.90;;;;;;;;;;5055988;28;20458;-85
2021/08/19 04:40:22;;;;;;;9.27;6.20;;;;;;;;;;5055380;28;20872;-86
2021/08/19 04:42:48;;;;;;;8.93;5.80;;;;;;;;;;5038179;28;20416;-85
2021/08/19 04:45:14;;;;;;;6.10;4.53;;;;;;;;;;5037883;28;20443;-87
2021/08/19 04:47:40;;;;;;;8.07;5.60;;;;;;;;;;5055370;28;20443;-88
2021/08/19 04:50:06;;;;;;;6.60;5.43;;;;;;;;;;5038260;28;20593;-86
2021/08/19 04:52:32;;;;;;;8.10;4.80;;;;;;;;;;5056118;28;20412;-86
2021/08/19 04:54:58;;;;;;;8.57;5.40;;;;;;;;;;5054821;28;20428;-85
2021/08/19 04:57:24;;;;;;;7.57;4.50;;;;;;;;;;5055252;28;20436;-87
2021/08/19 04:59:50;;;;;;;10.60;5.60;;;;;;;;;;5037077;28;20423;-87
2021/08/19 05:02:16;;;;;;;9.30;6.20;;;;;;;;;;5037740;28;20394;-87
2021/08/19 05:04:42;;;;;;;7.97;5.07;;;;;;;;;;5018115;28;20423;-85
2021/08/19 05:07:08;;;;;;;8.20;6.13;;;;;;;;;;5035174;28;20885;-85
2021/08/19 05:09:35;;;;;;;10.63;6.30;;;;;;;;;;5016896;28;20461;-85
2021/08/19 05:12:01;;;;;;;6.00;5.00;;;;;;;;;;5017393;28;20515;-85
2021/08/19 05:14:27;;;;;;;12.83;5.20;;;;;;;;;;5034223;28;20421;-86
2021/08/19 05:16:53;;;;;;;8.17;4.77;;;;;;;;;;5000246;28;20468;-86
2021/08/19 05:19:19;;;;;;;6.70;5.37;;;;;;;;;;5017058;28;20449;-88
2021/08/19 05:21:45;;;;;;;13.50;6.13;;;;;;;;;;5018035;28;20420;-87
2021/08/19 05:24:14;;;;;;;7.33;5.60;;;;;;;;;;5053920;28;20756;-80
2021/08/19 05:26:40;;;;;;;7.80;5.10;;;;;;;;;;5035082;28;20444;-79
2021/08/19 05:29:06;;;;;;;7.37;4.70;;;;;;;;;;5052761;28;20466;-80
2021/08/19 05:31:32;;;;;;;9.10;5.70;;;;;;;;;;5052917;28;20408;-80
2021/08/19 05:33:58;;;;;;;6.47;5.47;;;;;;;;;;5034936;28;20455;-80
2021/08/19 05:36:24;;;;;;;7.17;6.00;;;;;;;;;;5047073;28;20405;-80
2021/08/19 05:38:50;;;;;;;7.77;6.13;;;;;;;;;;5035352;28;20416;-79
2021/08/19 05:41:16;;;;;;;7.37;5.67;;;;;;;;;;5052171;28;20448;-80
2021/08/19 05:43:42;;;;;;;9.60;5.80;;;;;;;;;;5032607;28;20474;-80
2021/08/19 05:46:09;;;;;;;11.27;6.40;;;;;;;;;;5017304;28;20437;-88
2021/08/19 05:48:35;;;;;;;6.53;5.90;;;;;;;;;;5036326;28;20412;-87
2021/08/19 05:51:01;;;;;;;10.10;6.00;;;;;;;;;;5039848;28;20492;-88
2021/08/19 05:53:27;;;;;;;7.67;5.57;;;;;;;;;;5020090;28;20387;-87
2021/08/19 05:55:53;;;;;;;11.67;6.10;;;;;;;;;;5019755;28;20866;-90
2021/08/19 05:58:19;;;;;;;10.90;5.97;;;;;;;;;;5019404;28;20421;-86
2021/08/19 06:00:48;;;;;;;7.10;6.40;;;;;;;;;;5037324;28;20863;-87
2021/08/19 06:03:15;;;;;;;6.57;5.57;;;;;;;;;;5019904;28;20897;-87
2021/08/19 06:05:41;;;;;;;8.10;5.40;;;;;;;;;;5019920;28;20960;-87
2021/08/19 06:08:07;;;;;;;12.43;5.33;;;;;;;;;;5019189;28;20515;-88
2021/08/19 06:10:33;;;;;;;11.50;6.30;;;;;;;;;;5037008;28;21035;-87
2021/08/19 06:12:59;;;;;;;7.77;5.67;;;;;;;;;;5003003;28;20428;-87
2021/08/19 06:15:25;;;;;;;7.07;5.50;;;;;;;;;;5036997;28;20965;-88
2021/08/19 06:17:51;;;;;;;8.43;6.27;;;;;;;;;;5037057;28;20432;-87
2021/08/19 06:20:17;;;;;;;15.00;6.20;;;;;;;;;;5037136;28;20416;-87
2021/08/19 06:22:43;;;;;;;9.80;5.97;;;;;;;;;;5019458;28;20408;-87
2021/08/19 06:25:10;;;;;;;8.80;5.83;;;;;;;;;;5019314;28;20432;-88
2021/08/19 06:27:36;;;;;;;8.07;6.50;;;;;;;;;;5037082;28;20773;-87
2021/08/19 17:42:48;;;;;;;3.13;1.90;;;;;;;;;;4857324;29;20548;-80
2021/08/19 17:45:30;;;;;;;2.63;1.93;;;;;;;;;;4859511;29;20967;-80
2021/08/19 17:48:19;;;;;;;2.10;1.90;;;;;;;;;;4877572;29;20961;-80
2021/08/19 17:51:02;;;;;;;1.97;1.80;;;;;;;;;;4876512;29;20476;-80
2021/08/19 18:01:48;;;;;;;3.43;1.97;;;;;;;;;;4880533;29;20479;-81
2021/08/19 18:04:26;;;;;;;2.60;2.40;;;;;;;;;;4882726;29;20418;-82
2021/08/19 18:10:30;;;;;;;2.87;2.17;;;;;;;;;;4864354;29;20550;-82
2021/08/19 18:19:23;;;;;;;3.30;2.20;;;;;;;;;;4880468;29;20407;-82
2021/08/19 18:22:02;;;;;;;3.00;2.13;;;;;;;;;;4864810;29;20429;-82
2021/08/19 18:26:58;;;;;;;2.85;2.40;;;;;;;;;;4899681;29;20464;-81
2021/08/19 18:29:24;;;;;;;3.03;2.20;;;;;;;;;;4899904;29;20658;-85
2021/08/19 18:32:16;;;;;;;;;;;;;;;;;;;;;
2021/08/19 18:47:34;;;;;;;2.20;2.00;;;;;;;;;;5121428;23;21020;-81
2021/08/19 18:50:42;;;;;;;;;;;;;;;;;;;;;
2021/08/19 18:58:47;;;;;;;2.80;2.57;;;;;;;;;;5431654;23;20501;-79
2021/08/19 19:01:13;;;;;;;2.87;2.50;;;;;;;;;;4919678;29;20840;-78
2021/08/19 19:03:39;;;;;;;2.73;2.40;;;;;;;;;;4919237;29;20497;-78
2021/08/19 19:06:05;;;;;;;2.00;1.90;;;;;;;;;;4919462;29;20846;-78
2021/08/19 19:08:31;;;;;;;3.63;2.27;;;;;;;;;;4919515;29;20471;-79
2021/08/19 19:10:57;;;;;;;3.00;2.47;;;;;;;;;;4919469;29;20512;-78
2021/08/19 19:13:24;;;;;;;3.50;2.67;;;;;;;;;;4919041;29;20418;-77
2021/08/19 19:15:50;;;;;;;3.23;2.40;;;;;;;;;;4919296;29;20445;-78
2021/08/19 19:18:16;;;;;;;2.83;2.00;;;;;;;;;;4919445;29;20423;-79
2021/08/19 19:20:42;;;;;;;2.43;2.23;;;;;;;;;;4919373;29;20393;-78
2021/08/19 19:23:08;;;;;;;3.20;2.30;;;;;;;;;;4918826;29;20927;-78
2021/08/19 19:25:34;;;;;;;2.80;2.17;;;;;;;;;;4919090;29;20438;-78
2021/08/19 19:28:00;;;;;;;2.27;2.00;;;;;;;;;;4901992;29;20409;-78
2021/08/19 19:30:26;;;;;;;3.20;2.13;;;;;;;;;;4919242;29;20436;-81
2021/08/19 19:32:52;;;;;;;5.13;2.40;;;;;;;;;;4919057;29;20414;-81
2021/08/19 19:35:18;;;;;;;2.23;2.00;;;;;;;;;;4918964;29;20401;-78
2021/08/19 19:37:44;;;;;;;2.23;2.00;;;;;;;;;;4918958;29;20896;-78
2021/08/19 19:40:10;;;;;;;3.27;2.50;;;;;;;;;;4918887;29;20418;-78
2021/08/19 19:42:36;;;;;;;2.43;2.23;;;;;;;;;;4918953;29;20466;-77
2021/08/19 19:45:03;;;;;;;2.37;2.17;;;;;;;;;;4918644;29;20813;-78
2021/08/19 19:47:29;;;;;;;2.33;2.10;;;;;;;;;;4917794;29;20450;-79
2021/08/19 19:49:55;;;;;;;2.70;2.07;;;;;;;;;;4917637;29;20866;-78
2021/08/19 19:52:21;;;;;;;3.13;2.73;;;;;;;;;;4918658;29;20736;-77
2021/08/19 19:54:47;;;;;;;3.10;2.20;;;;;;;;;;4918436;29;20813;-78
2021/08/19 19:57:13;;;;;;;3.53;2.90;;;;;;;;;;4918727;29;20393;-79
2021/08/19 19:59:39;;;;;;;3.03;2.17;;;;;;;;;;4918517;29;20438;-79
2021/08/19 20:02:05;;;;;;;2.93;2.60;;;;;;;;;;4918472;29;20422;-79
2021/08/19 20:04:31;;;;;;;4.87;2.50;;;;;;;;;;4918169;29;20478;-79
2021/08/19 20:06:57;;;;;;;3.10;2.20;;;;;;;;;;4918459;29;20401;-79
2021/08/19 20:09:23;;;;;;;2.70;2.00;;;;;;;;;;4918407;29;20466;-80
2021/08/19 20:11:49;;;;;;;2.43;2.23;;;;;;;;;;4918692;29;20832;-80
2021/08/19 20:14:15;;;;;;;4.03;2.40;;;;;;;;;;4918013;29;20389;-80
2021/08/19 20:16:41;;;;;;;3.03;2.63;;;;;;;;;;4918703;29;20769;-79
2021/08/19 20:19:07;;;;;;;2.67;2.23;;;;;;;;;;4918484;29;20421;-80
2021/08/19 20:21:34;;;;;;;2.30;2.10;;;;;;;;;;4918068;29;20422;-78
2021/08/19 20:24:00;;;;;;;2.27;2.07;;;;;;;;;;4916809;29;20397;-79
2021/08/19 20:26:29;;;;;;;2.60;2.33;;;;;;;;;;4917952;29;20784;-79
2021/08/19 20:28:56;;;;;;;5.90;2.30;;;;;;;;;;4918127;29;20870;-80
2021/08/19 20:31:22;;;;;;;3.90;2.67;;;;;;;;;;4900993;29;20830;-77
2021/08/19 20:33:48;;;;;;;2.60;2.40;;;;;;;;;;4917723;29;20751;-77
2021/08/19 20:36:13;;;;;;;4.47;3.10;;;;;;;;;;4918090;29;20464;-80
2021/08/19 20:38:39;;;;;;;3.83;2.50;;;;;;;;;;4918133;29;20414;-78
2021/08/19 20:41:05;;;;;;;3.23;2.93;;;;;;;;;;4918154;29;20415;-78
2021/08/19 20:43:31;;;;;;;3.77;3.43;;;;;;;;;;4917779;29;20414;-79
2021/08/19 20:45:57;;;;;;;2.80;2.50;;;;;;;;;;4917746;29;20957;-79
2021/08/19 20:48:23;;;;;;;3.33;2.87;;;;;;;;;;4917799;29;20418;-79
2021/08/19 20:50:49;;;;;;;2.53;2.33;;;;;;;;;;4917617;29;20466;-78
2021/08/19 20:53:15;;;;;;;2.83;2.50;;;;;;;;;;4917413;29;20784;-78
2021/08/19 20:55:41;;;;;;;2.90;2.70;;;;;;;;;;4917654;29;20435;-80
2021/08/19 20:58:07;;;;;;;3.07;2.30;;;;;;;;;;4910864;29;20442;-80
2021/08/19 21:00:33;;;;;;;3.30;3.00;;;;;;;;;;4912632;29;20441;-79
2021/08/19 21:02:59;;;;;;;4.13;3.20;;;;;;;;;;4917261;29;20767;-80
2021/08/19 21:05:25;;;;;;;8.57;3.10;;;;;;;;;;4917362;29;20801;-80
2021/08/19 21:07:51;;;;;;;3.53;3.23;;;;;;;;;;4917488;29;20397;-80
2021/08/19 21:10:17;;;;;;;3.20;2.90;;;;;;;;;;4917308;29;20462;-79
2021/08/19 21:12:43;;;;;;;3.33;2.80;;;;;;;;;;4917079;29;20425;-80
2021/08/19 21:15:10;;;;;;;3.10;2.80;;;;;;;;;;4917331;29;20488;-80
2021/08/19 21:17:36;;;;;;;3.00;2.80;;;;;;;;;;4914179;29;20465;-79
2021/08/19 21:20:02;;;;;;;3.30;2.83;;;;;;;;;;4911812;29;20418;-80
2021/08/19 21:22:28;;;;;;;3.30;3.00;;;;;;;;;;4916968;29;20509;-81
2021/08/19 21:24:54;;;;;;;3.10;2.80;;;;;;;;;;4896906;29;20880;-79
2021/08/19 21:27:20;;;;;;;3.70;3.10;;;;;;;;;;4917196;29;20393;-80
2021/08/19 21:29:46;;;;;;;3.90;2.70;;;;;;;;;;4900448;29;20466;-80
2021/08/19 21:32:12;;;;;;;2.87;2.63;;;;;;;;;;4900397;29;20422;-81
2021/08/19 21:34:38;;;;;;;3.83;3.53;;;;;;;;;;4916973;29;20414;-79
2021/08/19 21:37:04;;;;;;;3.30;3.10;;;;;;;;;;4917312;29;20425;-79
2021/08/19 21:39:30;;;;;;;2.83;2.63;;;;;;;;;;4917222;29;20493;-80
2021/08/19 21:41:56;;;;;;;3.30;3.00;;;;;;;;;;4917198;29;20484;-80
2021/08/19 21:44:24;;;;;;;3.70;3.40;;;;;;;;;;4916728;29;20863;-79
2021/08/19 21:46:51;;;;;;;3.77;3.40;;;;;;;;;;4917035;29;20381;-80
2021/08/19 21:49:17;;;;;;;3.03;2.83;;;;;;;;;;4916946;29;20493;-79
2021/08/19 21:51:44;;;;;;;3.53;3.23;;;;;;;;;;4917136;29;20434;-80
2021/08/19 21:54:10;;;;;;;3.03;2.80;;;;;;;;;;4899703;29;20426;-80
2021/08/19 21:56:36;;;;;;;4.63;3.43;;;;;;;;;;4916874;29;20450;-79
2021/08/19 21:59:02;;;;;;;3.63;3.23;;;;;;;;;;4916760;29;20438;-79
2021/08/19 22:01:30;;;;;;;3.57;3.27;;;;;;;;;;4916852;29;20917;-79
2021/08/19 22:03:55;;;;;;;3.77;3.37;;;;;;;;;;4916592;29;20474;-79
2021/08/19 22:06:21;;;;;;;3.60;3.30;;;;;;;;;;4916736;29;20413;-79
2021/08/19 22:08:48;;;;;;;3.63;3.33;;;;;;;;;;4916829;29;20437;-79
2021/08/19 22:11:14;;;;;;;4.73;3.50;;;;;;;;;;4916570;29;20557;-79
2021/08/19 22:13:41;;;;;;;5.03;3.70;;;;;;;;;;4916465;29;20422;-80
2021/08/19 22:16:07;;;;;;;8.73;4.80;;;;;;;;;;4916942;29;20405;-78
2021/08/19 22:18:33;;;;;;;4.23;3.83;;;;;;;;;;4917004;29;20541;-79
2021/08/19 22:20:59;;;;;;;3.80;3.50;;;;;;;;;;4916919;29;20429;-79
2021/08/19 22:23:25;;;;;;;4.20;3.53;;;;;;;;;;4916322;29;20497;-79
2021/08/19 22:25:51;;;;;;;4.67;3.40;;;;;;;;;;4916658;29;20438;-80
2021/08/19 22:28:17;;;;;;;3.53;3.20;;;;;;;;;;4899526;29;20429;-80
2021/08/19 22:30:43;;;;;;;4.33;3.13;;;;;;;;;;4916603;29;20805;-80
2021/08/19 22:33:11;;;;;;;3.17;2.93;;;;;;;;;;4900521;29;20512;-80
2021/08/19 22:35:37;;;;;;;4.20;3.43;;;;;;;;;;4920009;29;20469;-80
2021/08/19 22:38:03;;;;;;;4.50;3.53;;;;;;;;;;4903104;29;20414;-79
2021/08/19 22:40:29;;;;;;;6.80;3.53;;;;;;;;;;4903123;29;21198;-80
2021/08/19 22:42:55;;;;;;;4.17;3.47;;;;;;;;;;4919932;29;20582;-80
2021/08/19 22:45:21;;;;;;;3.80;3.10;;;;;;;;;;4919785;29;20947;-79
2021/08/19 22:47:47;;;;;;;5.40;3.97;;;;;;;;;;4920052;29;20438;-79
2021/08/19 22:50:14;;;;;;;4.60;4.20;;;;;;;;;;4920009;29;20474;-80
2021/08/19 22:52:42;;;;;;;3.33;3.03;;;;;;;;;;4919915;29;20851;-79
2021/08/19 22:55:09;;;;;;;4.60;3.53;;;;;;;;;;4919582;29;20469;-80
2021/08/19 22:57:35;;;;;;;4.13;3.70;;;;;;;;;;4919551;29;20429;-79
2021/08/19 23:00:01;;;;;;;4.97;3.23;;;;;;;;;;4919750;29;20576;-80
2021/08/19 23:02:31;;;;;;;5.03;3.60;;;;;;;;;;4919578;29;20427;-78
2021/08/19 23:04:57;;;;;;;4.17;3.77;;;;;;;;;;4919374;29;20449;-79
2021/08/19 23:07:23;;;;;;;4.10;3.70;;;;;;;;;;4919463;29;20425;-78
2021/08/19 23:09:49;;;;;;;4.03;3.60;;;;;;;;;;4919428;29;20470;-78
2021/08/19 23:12:15;;;;;;;5.03;3.83;;;;;;;;;;4919489;29;20469;-78
2021/08/19 23:14:42;;;;;;;3.30;2.90;;;;;;;;;;4919275;29;20774;-78
2021/08/19 23:17:08;;;;;;;5.13;3.87;;;;;;;;;;4919629;29;20476;-78
2021/08/19 23:19:34;;;;;;;5.63;4.33;;;;;;;;;;4919329;29;20411;-78
2021/08/19 23:22:00;;;;;;;3.90;3.50;;;;;;;;;;4919297;29;20850;-79
2021/08/19 23:24:28;;;;;;;4.20;3.77;;;;;;;;;;4902195;29;20971;-79
2021/08/19 23:26:54;;;;;;;5.63;4.30;;;;;;;;;;4902669;29;20424;-80
2021/08/19 23:29:20;;;;;;;4.70;3.77;;;;;;;;;;4919228;29;20922;-78
2021/08/19 23:31:46;;;;;;;5.73;3.90;;;;;;;;;;4919164;29;20497;-78
2021/08/19 23:34:12;;;;;;;4.70;4.17;;;;;;;;;;4918818;29;20946;-79
2021/08/19 23:36:38;;;;;;;4.20;3.77;;;;;;;;;;4918896;29;20442;-79
2021/08/19 23:39:04;;;;;;;5.10;4.00;;;;;;;;;;4919250;29;20414;-79
2021/08/19 23:41:31;;;;;;;4.90;3.57;;;;;;;;;;4902360;29;20422;-79
2021/08/19 23:43:57;;;;;;;12.73;4.50;;;;;;;;;;4918301;29;20422;-78
2021/08/19 23:46:23;;;;;;;6.23;4.67;;;;;;;;;;4918814;29;20438;-81
2021/08/19 23:48:48;;;;;;;5.70;4.77;;;;;;;;;;4918909;29;20443;-80
2021/08/19 23:51:15;;;;;;;4.83;4.33;;;;;;;;;;4918476;29;20978;-79
2021/08/19 23:53:41;;;;;;;6.73;4.80;;;;;;;;;;4918517;29;20501;-81
2021/08/19 23:56:06;;;;;;;5.00;4.27;;;;;;;;;;4918778;29;20599;-80
2021/08/19 23:58:32;;;;;;;4.53;4.13;;;;;;;;;;4918530;29;20882;-80
